sensor_id;sensor_type;location;lat;lon;timestamp;temperature;humidity
814;DHT22;389;48.710;9.392;2023-03-21T00:01:50;10.40;95.90
814;DHT22;389;48.710;9.392;2023-03-21T00:04:16;10.30;95.90
814;DHT22;389;48.710;9.392;2023-03-21T00:06:43;10.40;95.90
814;DHT22;389;48.710;9.392;2023-03-21T00:09:08;10.30;95.90
814;DHT22;389;48.710;9.392;2023-03-21T00:11:34;10.40;95.90
814;DHT22;389;48.710;9.392;2023-03-21T00:14:00;10.40;95.90
814;DHT22;389;48.710;9.392;2023-03-21T00:16:27;10.30;95.90
814;DHT22;389;48.710;9.392;2023-03-21T00:18:55;10.20;95.90
814;DHT22;389;48.710;9.392;2023-03-21T00:21:23;10.20;95.90
814;DHT22;389;48.710;9.392;2023-03-21T00:23:57;10.40;96.10
814;DHT22;389;48.710;9.392;2023-03-21T00:26:23;10.20;96.10
814;DHT22;389;48.710;9.392;2023-03-21T00:28:49;10.20;96.10
814;DHT22;389;48.710;9.392;2023-03-21T00:31:16;10.30;96.20
814;DHT22;389;48.710;9.392;2023-03-21T00:33:41;10.20;96.10
814;DHT22;389;48.710;9.392;2023-03-21T00:36:08;10.20;96.20
814;DHT22;389;48.710;9.392;2023-03-21T00:38:35;10.20;96.20
814;DHT22;389;48.710;9.392;2023-03-21T00:41:05;10.20;96.20
814;DHT22;389;48.710;9.392;2023-03-21T00:43:31;10.20;96.30
814;DHT22;389;48.710;9.392;2023-03-21T00:45:58;10.20;96.30
814;DHT22;389;48.710;9.392;2023-03-21T00:48:25;10.20;96.40
814;DHT22;389;48.710;9.392;2023-03-21T00:50:52;10.20;96.50
814;DHT22;389;48.710;9.392;2023-03-21T00:53:19;10.40;96.70
814;DHT22;389;48.710;9.392;2023-03-21T00:55:45;10.20;96.60
814;DHT22;389;48.710;9.392;2023-03-21T00:58:11;10.30;96.60
814;DHT22;389;48.710;9.392;2023-03-21T01:00:36;10.20;96.70
814;DHT22;389;48.710;9.392;2023-03-21T01:03:04;10.20;96.70
814;DHT22;389;48.710;9.392;2023-03-21T01:05:34;10.10;96.60
814;DHT22;389;48.710;9.392;2023-03-21T01:08:19;10.10;96.70
814;DHT22;389;48.710;9.392;2023-03-21T01:10:47;10.20;96.80
814;DHT22;389;48.710;9.392;2023-03-21T01:13:15;10.10;96.80
814;DHT22;389;48.710;9.392;2023-03-21T01:15:43;10.10;96.80
814;DHT22;389;48.710;9.392;2023-03-21T01:18:09;10.10;96.90
814;DHT22;389;48.710;9.392;2023-03-21T01:20:35;10.20;97.00
814;DHT22;389;48.710;9.392;2023-03-21T01:23:01;10.20;97.00
814;DHT22;389;48.710;9.392;2023-03-21T01:25:26;10.30;97.00
814;DHT22;389;48.710;9.392;2023-03-21T01:27:52;10.30;97.00
814;DHT22;389;48.710;9.392;2023-03-21T01:30:19;10.30;97.10
814;DHT22;389;48.710;9.392;2023-03-21T01:32:45;10.20;97.00
814;DHT22;389;48.710;9.392;2023-03-21T01:35:11;10.20;97.00
814;DHT22;389;48.710;9.392;2023-03-21T01:37:37;10.30;97.00
814;DHT22;389;48.710;9.392;2023-03-21T01:40:04;10.20;96.90
814;DHT22;389;48.710;9.392;2023-03-21T01:42:30;10.20;96.90
814;DHT22;389;48.710;9.392;2023-03-21T01:45:02;10.20;96.90
814;DHT22;389;48.710;9.392;2023-03-21T01:47:29;10.20;96.90
814;DHT22;389;48.710;9.392;2023-03-21T01:49:57;10.20;96.90
814;DHT22;389;48.710;9.392;2023-03-21T01:52:33;10.20;96.90
814;DHT22;389;48.710;9.392;2023-03-21T01:55:03;10.30;97.00
814;DHT22;389;48.710;9.392;2023-03-21T01:57:35;10.20;97.00
814;DHT22;389;48.710;9.392;2023-03-21T02:00:05;10.20;97.00
814;DHT22;389;48.710;9.392;2023-03-21T02:02:40;10.00;96.90
814;DHT22;389;48.710;9.392;2023-03-21T02:05:20;10.20;97.00
814;DHT22;389;48.710;9.392;2023-03-21T02:07:47;10.40;97.20
814;DHT22;389;48.710;9.392;2023-03-21T02:10:17;10.40;97.20
814;DHT22;389;48.710;9.392;2023-03-21T02:12:42;10.30;97.20
814;DHT22;389;48.710;9.392;2023-03-21T02:15:09;10.20;97.20
814;DHT22;389;48.710;9.392;2023-03-21T02:17:54;10.20;97.20
814;DHT22;389;48.710;9.392;2023-03-21T02:29:04;10.20;97.40
814;DHT22;389;48.710;9.392;2023-03-21T02:37:20;10.20;97.50
814;DHT22;389;48.710;9.392;2023-03-21T02:40:05;10.20;97.50
814;DHT22;389;48.710;9.392;2023-03-21T02:45:13;10.10;97.50
814;DHT22;389;48.710;9.392;2023-03-21T02:50:37;10.10;97.70
814;DHT22;389;48.710;9.392;2023-03-21T02:53:07;10.10;97.70
814;DHT22;389;48.710;9.392;2023-03-21T02:55:35;10.20;97.80
814;DHT22;389;48.710;9.392;2023-03-21T02:58:02;10.10;97.80
814;DHT22;389;48.710;9.392;2023-03-21T03:00:31;10.10;98.10
814;DHT22;389;48.710;9.392;2023-03-21T03:02:57;10.10;97.90
814;DHT22;389;48.710;9.392;2023-03-21T03:05:26;10.10;97.90
814;DHT22;389;48.710;9.392;2023-03-21T03:16:08;10.10;98.20
814;DHT22;389;48.710;9.392;2023-03-21T03:18:57;10.10;98.20
814;DHT22;389;48.710;9.392;2023-03-21T03:21:40;10.10;98.30
814;DHT22;389;48.710;9.392;2023-03-21T03:24:16;10.00;98.20
814;DHT22;389;48.710;9.392;2023-03-21T03:27:08;10.00;98.20
814;DHT22;389;48.710;9.392;2023-03-21T03:29:38;10.00;98.20
814;DHT22;389;48.710;9.392;2023-03-21T03:32:17;10.00;98.20
814;DHT22;389;48.710;9.392;2023-03-21T03:34:51;10.00;98.20
814;DHT22;389;48.710;9.392;2023-03-21T03:37:23;10.00;98.20
814;DHT22;389;48.710;9.392;2023-03-21T03:40:03;10.00;98.30
814;DHT22;389;48.710;9.392;2023-03-21T03:42:34;10.00;98.30
814;DHT22;389;48.710;9.392;2023-03-21T03:45:01;10.00;98.30
814;DHT22;389;48.710;9.392;2023-03-21T03:50:37;10.00;98.40
814;DHT22;389;48.710;9.392;2023-03-21T03:53:27;10.00;98.40
814;DHT22;389;48.710;9.392;2023-03-21T03:55:55;9.90;98.90
814;DHT22;389;48.710;9.392;2023-03-21T03:58:22;9.90;98.90
814;DHT22;389;48.710;9.392;2023-03-21T04:00:49;9.90;99.00
814;DHT22;389;48.710;9.392;2023-03-21T04:03:14;9.90;99.00
814;DHT22;389;48.710;9.392;2023-03-21T04:05:41;10.10;98.60
814;DHT22;389;48.710;9.392;2023-03-21T04:08:11;9.90;99.10
814;DHT22;389;48.710;9.392;2023-03-21T04:10:37;9.90;99.20
814;DHT22;389;48.710;9.392;2023-03-21T04:13:03;10.00;98.70
814;DHT22;389;48.710;9.392;2023-03-21T04:15:28;9.90;99.20
814;DHT22;389;48.710;9.392;2023-03-21T04:17:54;9.90;99.30
814;DHT22;389;48.710;9.392;2023-03-21T04:20:20;9.90;99.30
814;DHT22;389;48.710;9.392;2023-03-21T04:22:46;9.80;99.40
814;DHT22;389;48.710;9.392;2023-03-21T04:25:13;9.80;99.70
814;DHT22;389;48.710;9.392;2023-03-21T04:27:39;9.80;99.50
814;DHT22;389;48.710;9.392;2023-03-21T04:30:05;9.60;99.40
814;DHT22;389;48.710;9.392;2023-03-21T04:32:32;9.80;99.50
814;DHT22;389;48.710;9.392;2023-03-21T04:34:59;9.80;99.50
814;DHT22;389;48.710;9.392;2023-03-21T04:37:25;9.80;99.60
814;DHT22;389;48.710;9.392;2023-03-21T04:39:52;9.70;99.60
814;DHT22;389;48.710;9.392;2023-03-21T04:42:18;9.70;99.60
814;DHT22;389;48.710;9.392;2023-03-21T04:44:45;9.70;99.60
814;DHT22;389;48.710;9.392;2023-03-21T04:47:11;9.80;99.70
814;DHT22;389;48.710;9.392;2023-03-21T04:49:37;9.70;99.60
814;DHT22;389;48.710;9.392;2023-03-21T04:52:04;9.80;99.70
814;DHT22;389;48.710;9.392;2023-03-21T04:54:30;9.70;99.70
814;DHT22;389;48.710;9.392;2023-03-21T04:56:57;9.80;99.70
814;DHT22;389;48.710;9.392;2023-03-21T04:59:22;9.60;99.60
814;DHT22;389;48.710;9.392;2023-03-21T05:01:48;9.50;99.60
814;DHT22;389;48.710;9.392;2023-03-21T05:04:14;9.50;99.60
814;DHT22;389;48.710;9.392;2023-03-21T05:06:40;9.50;99.60
814;DHT22;389;48.710;9.392;2023-03-21T05:09:09;9.50;99.60
814;DHT22;389;48.710;9.392;2023-03-21T05:11:37;9.40;99.50
814;DHT22;389;48.710;9.392;2023-03-21T05:14:06;9.40;99.50
814;DHT22;389;48.710;9.392;2023-03-21T05:16:32;9.50;99.60
814;DHT22;389;48.710;9.392;2023-03-21T05:18:59;9.30;99.80
814;DHT22;389;48.710;9.392;2023-03-21T05:21:30;9.20;99.60
814;DHT22;389;48.710;9.392;2023-03-21T05:23:59;9.20;99.60
814;DHT22;389;48.710;9.392;2023-03-21T05:26:28;9.20;99.70
814;DHT22;389;48.710;9.392;2023-03-21T05:28:54;9.20;99.80
814;DHT22;389;48.710;9.392;2023-03-21T05:31:20;9.20;99.80
814;DHT22;389;48.710;9.392;2023-03-21T05:33:46;9.20;99.90
814;DHT22;389;48.710;9.392;2023-03-21T05:36:12;9.30;99.90
814;DHT22;389;48.710;9.392;2023-03-21T05:38:38;9.20;99.90
814;DHT22;389;48.710;9.392;2023-03-21T05:41:07;9.20;99.90
814;DHT22;389;48.710;9.392;2023-03-21T05:43:33;9.20;99.90
814;DHT22;389;48.710;9.392;2023-03-21T05:45:58;9.30;99.90
814;DHT22;389;48.710;9.392;2023-03-21T05:48:24;9.30;99.90
814;DHT22;389;48.710;9.392;2023-03-21T05:50:49;9.40;99.90
814;DHT22;389;48.710;9.392;2023-03-21T05:53:15;9.40;99.90
814;DHT22;389;48.710;9.392;2023-03-21T05:55:40;9.40;99.90
814;DHT22;389;48.710;9.392;2023-03-21T05:58:06;9.40;99.90
814;DHT22;389;48.710;9.392;2023-03-21T06:00:32;9.50;99.90
814;DHT22;389;48.710;9.392;2023-03-21T06:02:57;9.50;99.90
814;DHT22;389;48.710;9.392;2023-03-21T06:05:23;9.60;99.90
814;DHT22;389;48.710;9.392;2023-03-21T06:07:48;9.60;99.90
814;DHT22;389;48.710;9.392;2023-03-21T06:10:14;9.80;99.90
814;DHT22;389;48.710;9.392;2023-03-21T06:12:39;9.70;99.90
814;DHT22;389;48.710;9.392;2023-03-21T06:15:08;9.80;99.90
814;DHT22;389;48.710;9.392;2023-03-21T06:17:33;9.90;99.90
814;DHT22;389;48.710;9.392;2023-03-21T06:19:59;10.00;99.30
814;DHT22;389;48.710;9.392;2023-03-21T06:22:29;10.00;99.20
814;DHT22;389;48.710;9.392;2023-03-21T06:24:55;10.10;98.70
814;DHT22;389;48.710;9.392;2023-03-21T06:27:21;10.10;98.40
814;DHT22;389;48.710;9.392;2023-03-21T06:29:47;10.10;97.90
814;DHT22;389;48.710;9.392;2023-03-21T06:32:13;10.20;97.80
814;DHT22;389;48.710;9.392;2023-03-21T06:34:38;10.30;97.70
814;DHT22;389;48.710;9.392;2023-03-21T06:37:04;10.30;97.60
814;DHT22;389;48.710;9.392;2023-03-21T06:39:30;10.40;97.50
814;DHT22;389;48.710;9.392;2023-03-21T06:41:57;10.40;97.10
814;DHT22;389;48.710;9.392;2023-03-21T06:44:23;10.50;96.90
814;DHT22;389;48.710;9.392;2023-03-21T06:46:50;10.60;96.90
814;DHT22;389;48.710;9.392;2023-03-21T06:49:16;10.60;96.50
814;DHT22;389;48.710;9.392;2023-03-21T06:51:42;10.70;96.40
814;DHT22;389;48.710;9.392;2023-03-21T06:54:08;10.80;96.40
814;DHT22;389;48.710;9.392;2023-03-21T06:56:33;10.90;95.90
814;DHT22;389;48.710;9.392;2023-03-21T06:58:59;11.00;95.60
814;DHT22;389;48.710;9.392;2023-03-21T07:01:25;11.10;95.40
814;DHT22;389;48.710;9.392;2023-03-21T07:03:52;11.20;95.40
814;DHT22;389;48.710;9.392;2023-03-21T07:06:18;11.30;95.40
814;DHT22;389;48.710;9.392;2023-03-21T07:08:44;11.40;95.40
814;DHT22;389;48.710;9.392;2023-03-21T07:11:12;11.50;95.00
814;DHT22;389;48.710;9.392;2023-03-21T07:13:38;11.60;94.80
814;DHT22;389;48.710;9.392;2023-03-21T07:16:03;11.70;94.70
814;DHT22;389;48.710;9.392;2023-03-21T07:18:29;11.80;94.50
814;DHT22;389;48.710;9.392;2023-03-21T07:20:55;12.00;94.20
814;DHT22;389;48.710;9.392;2023-03-21T07:23:22;12.00;94.10
814;DHT22;389;48.710;9.392;2023-03-21T07:25:48;12.00;94.20
814;DHT22;389;48.710;9.392;2023-03-21T07:28:15;12.00;94.20
814;DHT22;389;48.710;9.392;2023-03-21T07:30:41;12.00;94.30
814;DHT22;389;48.710;9.392;2023-03-21T07:33:07;12.00;94.30
814;DHT22;389;48.710;9.392;2023-03-21T07:35:33;12.00;94.70
814;DHT22;389;48.710;9.392;2023-03-21T07:38:00;12.00;94.40
814;DHT22;389;48.710;9.392;2023-03-21T07:40:26;12.00;94.40
814;DHT22;389;48.710;9.392;2023-03-21T07:42:52;12.00;94.10
814;DHT22;389;48.710;9.392;2023-03-21T07:45:17;12.00;94.10
814;DHT22;389;48.710;9.392;2023-03-21T07:47:47;12.00;94.00
814;DHT22;389;48.710;9.392;2023-03-21T07:50:13;11.90;93.80
814;DHT22;389;48.710;9.392;2023-03-21T07:52:39;11.90;93.80
814;DHT22;389;48.710;9.392;2023-03-21T07:55:05;11.80;93.70
814;DHT22;389;48.710;9.392;2023-03-21T07:57:31;11.90;93.80
814;DHT22;389;48.710;9.392;2023-03-21T07:59:56;12.00;93.70
814;DHT22;389;48.710;9.392;2023-03-21T08:02:22;11.90;93.50
814;DHT22;389;48.710;9.392;2023-03-21T08:04:47;12.10;93.60
814;DHT22;389;48.710;9.392;2023-03-21T08:07:13;12.00;93.40
814;DHT22;389;48.710;9.392;2023-03-21T08:09:39;12.10;93.50
814;DHT22;389;48.710;9.392;2023-03-21T08:12:05;12.10;93.30
814;DHT22;389;48.710;9.392;2023-03-21T08:14:33;12.20;93.40
814;DHT22;389;48.710;9.392;2023-03-21T08:16:59;12.40;93.10
814;DHT22;389;48.710;9.392;2023-03-21T08:19:24;12.40;92.90
814;DHT22;389;48.710;9.392;2023-03-21T08:21:51;12.50;92.60
814;DHT22;389;48.710;9.392;2023-03-21T08:24:17;12.70;92.50
814;DHT22;389;48.710;9.392;2023-03-21T08:26:43;12.70;92.40
814;DHT22;389;48.710;9.392;2023-03-21T08:29:10;12.80;92.10
814;DHT22;389;48.710;9.392;2023-03-21T08:31:36;13.10;92.00
814;DHT22;389;48.710;9.392;2023-03-21T08:34:02;13.20;91.70
814;DHT22;389;48.710;9.392;2023-03-21T08:36:27;13.20;91.50
814;DHT22;389;48.710;9.392;2023-03-21T08:38:54;13.30;91.50
814;DHT22;389;48.710;9.392;2023-03-21T08:41:22;13.40;91.30
814;DHT22;389;48.710;9.392;2023-03-21T08:43:50;13.50;91.20
814;DHT22;389;48.710;9.392;2023-03-21T08:46:15;13.50;91.00
814;DHT22;389;48.710;9.392;2023-03-21T08:59:04;13.70;90.70
814;DHT22;389;48.710;9.392;2023-03-21T09:01:37;13.70;90.60
814;DHT22;389;48.710;9.392;2023-03-21T09:04:03;13.70;90.60
814;DHT22;389;48.710;9.392;2023-03-21T09:06:32;13.80;90.50
814;DHT22;389;48.710;9.392;2023-03-21T09:08:58;13.90;90.30
814;DHT22;389;48.710;9.392;2023-03-21T09:11:24;13.90;89.90
814;DHT22;389;48.710;9.392;2023-03-21T09:13:50;14.00;89.60
814;DHT22;389;48.710;9.392;2023-03-21T09:16:16;14.00;87.10
814;DHT22;389;48.710;9.392;2023-03-21T09:18:41;14.10;87.20
814;DHT22;389;48.710;9.392;2023-03-21T09:21:13;14.20;87.20
814;DHT22;389;48.710;9.392;2023-03-21T09:23:41;14.30;87.50
814;DHT22;389;48.710;9.392;2023-03-21T09:26:09;14.30;85.40
814;DHT22;389;48.710;9.392;2023-03-21T09:28:35;14.40;85.00
814;DHT22;389;48.710;9.392;2023-03-21T09:31:03;14.50;85.20
814;DHT22;389;48.710;9.392;2023-03-21T09:33:31;14.60;83.70
814;DHT22;389;48.710;9.392;2023-03-21T09:35:57;14.70;84.20
814;DHT22;389;48.710;9.392;2023-03-21T09:38:25;14.80;83.90
814;DHT22;389;48.710;9.392;2023-03-21T09:44:10;15.10;82.10
814;DHT22;389;48.710;9.392;2023-03-21T13:20:00;21.50;54.60
814;DHT22;389;48.710;9.392;2023-03-21T13:22:34;21.20;54.50
814;DHT22;389;48.710;9.392;2023-03-21T13:25:28;21.40;55.10
814;DHT22;389;48.710;9.392;2023-03-21T13:28:12;21.50;55.20
814;DHT22;389;48.710;9.392;2023-03-21T13:40:51;22.10;54.70
814;DHT22;389;48.710;9.392;2023-03-21T13:50:58;22.20;54.30
814;DHT22;389;48.710;9.392;2023-03-21T14:04:04;22.40;53.80
814;DHT22;389;48.710;9.392;2023-03-21T16:14:25;19.00;60.20
814;DHT22;389;48.710;9.392;2023-03-21T16:16:55;18.80;60.70
814;DHT22;389;48.710;9.392;2023-03-21T16:19:21;18.60;60.90
814;DHT22;389;48.710;9.392;2023-03-21T16:21:49;18.40;61.80
814;DHT22;389;48.710;9.392;2023-03-21T16:24:15;18.30;62.50
814;DHT22;389;48.710;9.392;2023-03-21T16:26:46;18.10;63.10
814;DHT22;389;48.710;9.392;2023-03-21T16:29:33;18.00;63.90
814;DHT22;389;48.710;9.392;2023-03-21T17:00:58;16.60;66.20
814;DHT22;389;48.710;9.392;2023-03-21T17:03:25;16.70;67.30
814;DHT22;389;48.710;9.392;2023-03-21T17:05:51;16.60;68.30
814;DHT22;389;48.710;9.392;2023-03-21T17:08:18;16.40;68.90
814;DHT22;389;48.710;9.392;2023-03-21T17:10:44;16.30;69.30
814;DHT22;389;48.710;9.392;2023-03-21T17:13:10;16.20;70.00
814;DHT22;389;48.710;9.392;2023-03-21T17:15:36;16.30;71.10
814;DHT22;389;48.710;9.392;2023-03-21T17:18:03;16.10;71.30
814;DHT22;389;48.710;9.392;2023-03-21T17:20:31;16.00;71.70
814;DHT22;389;48.710;9.392;2023-03-21T17:22:57;16.10;72.00
814;DHT22;389;48.710;9.392;2023-03-21T17:25:23;16.00;71.80
814;DHT22;389;48.710;9.392;2023-03-21T17:27:57;15.90;71.80
814;DHT22;389;48.710;9.392;2023-03-21T17:30:34;15.90;71.90
814;DHT22;389;48.710;9.392;2023-03-21T17:33:47;15.80;72.30
814;DHT22;389;48.710;9.392;2023-03-21T17:47:41;15.50;73.50
814;DHT22;389;48.710;9.392;2023-03-21T17:50:20;15.50;73.60
814;DHT22;389;48.710;9.392;2023-03-21T17:52:46;15.40;73.60
814;DHT22;389;48.710;9.392;2023-03-21T17:55:13;15.40;73.90
814;DHT22;389;48.710;9.392;2023-03-21T17:57:40;15.50;74.10
814;DHT22;389;48.710;9.392;2023-03-21T18:11:53;15.40;73.70
814;DHT22;389;48.710;9.392;2023-03-21T18:14:20;15.30;73.80
814;DHT22;389;48.710;9.392;2023-03-21T18:16:46;15.30;74.50
814;DHT22;389;48.710;9.392;2023-03-21T18:19:12;15.30;75.00
814;DHT22;389;48.710;9.392;2023-03-21T18:21:38;15.30;75.60
814;DHT22;389;48.710;9.392;2023-03-21T19:56:22;14.00;88.90
814;DHT22;389;48.710;9.392;2023-03-21T19:58:47;14.00;89.00
814;DHT22;389;48.710;9.392;2023-03-21T20:01:13;14.00;89.10
814;DHT22;389;48.710;9.392;2023-03-21T20:03:39;13.90;88.90
814;DHT22;389;48.710;9.392;2023-03-21T20:06:08;13.90;88.80
814;DHT22;389;48.710;9.392;2023-03-21T20:57:40;13.30;91.10
814;DHT22;389;48.710;9.392;2023-03-21T21:00:08;13.30;91.30
814;DHT22;389;48.710;9.392;2023-03-21T21:02:38;13.30;91.40
814;DHT22;389;48.710;9.392;2023-03-21T21:05:04;13.20;91.40
814;DHT22;389;48.710;9.392;2023-03-21T21:07:32;13.30;91.50
814;DHT22;389;48.710;9.392;2023-03-21T21:09:59;13.20;91.60
814;DHT22;389;48.710;9.392;2023-03-21T21:12:26;13.20;91.70
814;DHT22;389;48.710;9.392;2023-03-21T21:14:53;13.20;91.80
814;DHT22;389;48.710;9.392;2023-03-21T21:17:19;13.10;91.90
814;DHT22;389;48.710;9.392;2023-03-21T21:19:46;13.10;92.00
814;DHT22;389;48.710;9.392;2023-03-21T21:22:15;13.10;92.20
814;DHT22;389;48.710;9.392;2023-03-21T21:24:41;13.10;92.40
814;DHT22;389;48.710;9.392;2023-03-21T21:27:07;13.10;92.50
814;DHT22;389;48.710;9.392;2023-03-21T21:29:33;13.10;92.50
814;DHT22;389;48.710;9.392;2023-03-21T21:31:59;13.10;92.50
814;DHT22;389;48.710;9.392;2023-03-21T21:34:27;13.10;92.50
814;DHT22;389;48.710;9.392;2023-03-21T21:36:53;12.90;92.40
814;DHT22;389;48.710;9.392;2023-03-21T21:39:20;13.00;92.50
814;DHT22;389;48.710;9.392;2023-03-21T21:41:47;13.00;92.60
814;DHT22;389;48.710;9.392;2023-03-21T21:44:13;13.00;92.50
814;DHT22;389;48.710;9.392;2023-03-21T21:46:39;13.10;92.60
814;DHT22;389;48.710;9.392;2023-03-21T21:49:06;13.10;92.60
814;DHT22;389;48.710;9.392;2023-03-21T21:51:32;13.00;92.70
814;DHT22;389;48.710;9.392;2023-03-21T21:53:58;13.00;92.80
814;DHT22;389;48.710;9.392;2023-03-21T21:56:25;13.10;92.90
814;DHT22;389;48.710;9.392;2023-03-21T21:58:57;13.10;93.00
814;DHT22;389;48.710;9.392;2023-03-21T22:01:27;13.00;93.00
814;DHT22;389;48.710;9.392;2023-03-21T22:03:54;13.10;93.10
814;DHT22;389;48.710;9.392;2023-03-21T22:06:22;12.90;93.00
814;DHT22;389;48.710;9.392;2023-03-21T22:08:48;12.80;93.10
814;DHT22;389;48.710;9.392;2023-03-21T22:11:16;12.80;93.10
814;DHT22;389;48.710;9.392;2023-03-21T22:13:43;12.80;93.20
814;DHT22;389;48.710;9.392;2023-03-21T22:16:09;12.90;93.40
814;DHT22;389;48.710;9.392;2023-03-21T22:18:35;12.70;93.40
814;DHT22;389;48.710;9.392;2023-03-21T22:21:03;12.70;93.40
814;DHT22;389;48.710;9.392;2023-03-21T22:23:29;12.60;93.80
814;DHT22;389;48.710;9.392;2023-03-21T22:25:56;12.60;93.80
814;DHT22;389;48.710;9.392;2023-03-21T22:28:22;12.60;93.80
814;DHT22;389;48.710;9.392;2023-03-21T22:30:50;12.60;93.80
814;DHT22;389;48.710;9.392;2023-03-21T22:33:16;12.50;93.80
814;DHT22;389;48.710;9.392;2023-03-21T22:35:41;12.50;93.80
814;DHT22;389;48.710;9.392;2023-03-21T22:38:07;12.50;93.70
814;DHT22;389;48.710;9.392;2023-03-21T22:40:32;12.50;93.70
814;DHT22;389;48.710;9.392;2023-03-21T22:42:58;12.40;93.70
814;DHT22;389;48.710;9.392;2023-03-21T22:45:24;12.40;93.80
814;DHT22;389;48.710;9.392;2023-03-21T22:47:49;12.30;94.00
814;DHT22;389;48.710;9.392;2023-03-21T22:50:15;12.20;94.10
814;DHT22;389;48.710;9.392;2023-03-21T22:52:41;12.30;94.50
814;DHT22;389;48.710;9.392;2023-03-21T22:55:07;12.10;94.30
814;DHT22;389;48.710;9.392;2023-03-21T22:57:34;12.00;94.30
814;DHT22;389;48.710;9.392;2023-03-21T22:59:59;11.90;94.50
814;DHT22;389;48.710;9.392;2023-03-21T23:02:25;11.80;94.50
814;DHT22;389;48.710;9.392;2023-03-21T23:04:51;11.70;94.50
814;DHT22;389;48.710;9.392;2023-03-21T23:07:17;11.60;94.60
814;DHT22;389;48.710;9.392;2023-03-21T23:09:43;11.70;94.70
814;DHT22;389;48.710;9.392;2023-03-21T23:12:09;11.40;94.70
814;DHT22;389;48.710;9.392;2023-03-21T23:14:34;11.30;94.80
814;DHT22;389;48.710;9.392;2023-03-21T23:17:00;11.20;94.90
814;DHT22;389;48.710;9.392;2023-03-21T23:19:26;11.10;95.00
814;DHT22;389;48.710;9.392;2023-03-21T23:21:53;11.10;95.10
814;DHT22;389;48.710;9.392;2023-03-21T23:24:20;11.00;95.10
814;DHT22;389;48.710;9.392;2023-03-21T23:26:46;10.90;95.20
814;DHT22;389;48.710;9.392;2023-03-21T23:29:11;10.80;95.50
814;DHT22;389;48.710;9.392;2023-03-21T23:31:38;10.70;95.60
814;DHT22;389;48.710;9.392;2023-03-21T23:34:04;10.70;95.70
814;DHT22;389;48.710;9.392;2023-03-21T23:36:30;10.60;95.80
814;DHT22;389;48.710;9.392;2023-03-21T23:38:56;10.50;96.00
814;DHT22;389;48.710;9.392;2023-03-21T23:41:23;10.40;96.20
814;DHT22;389;48.710;9.392;2023-03-21T23:43:49;10.40;96.40
814;DHT22;389;48.710;9.392;2023-03-21T23:46:16;10.40;96.40
814;DHT22;389;48.710;9.392;2023-03-21T23:48:42;10.30;96.50
814;DHT22;389;48.710;9.392;2023-03-21T23:51:10;10.20;96.60
814;DHT22;389;48.710;9.392;2023-03-21T23:53:36;10.20;96.80
814;DHT22;389;48.710;9.392;2023-03-21T23:56:12;10.20;97.10
814;DHT22;389;48.710;9.392;2023-03-21T23:58:44;10.00;97.10
